sensor_id;sensor_type;location;lat;lon;timestamp;P1;durP1;ratioP1;P2;durP2;ratioP2
33902;SDS011;20194;50.950;5.346;2023-07-20T00:01:13;10.82;;;4.13;;
33902;SDS011;20194;50.950;5.346;2023-07-20T00:03:38;9.65;;;4.55;;
33902;SDS011;20194;50.950;5.346;2023-07-20T00:06:04;9.23;;;4.32;;
33902;SDS011;20194;50.950;5.346;2023-07-20T00:08:30;10.63;;;4.00;;
33902;SDS011;20194;50.950;5.346;2023-07-20T00:10:56;9.88;;;4.07;;
33902;SDS011;20194;50.950;5.346;2023-07-20T00:13:22;9.90;;;3.65;;
33902;SDS011;20194;50.950;5.346;2023-07-20T00:15:48;6.78;;;3.88;;
33902;SDS011;20194;50.950;5.346;2023-07-20T00:18:14;8.13;;;4.20;;
33902;SDS011;20194;50.950;5.346;2023-07-20T00:20:40;23.17;;;4.28;;
33902;SDS011;20194;50.950;5.346;2023-07-20T00:23:06;6.57;;;3.92;;
33902;SDS011;20194;50.950;5.346;2023-07-20T00:25:32;9.45;;;3.90;;
33902;SDS011;20194;50.950;5.346;2023-07-20T00:27:58;6.15;;;3.20;;
33902;SDS011;20194;50.950;5.346;2023-07-20T00:30:24;5.57;;;3.42;;
33902;SDS011;20194;50.950;5.346;2023-07-20T00:32:49;6.45;;;3.67;;
33902;SDS011;20194;50.950;5.346;2023-07-20T00:35:15;6.45;;;3.63;;
33902;SDS011;20194;50.950;5.346;2023-07-20T00:37:41;6.18;;;3.55;;
33902;SDS011;20194;50.950;5.346;2023-07-20T00:40:07;11.20;;;3.65;;
33902;SDS011;20194;50.950;5.346;2023-07-20T00:42:33;9.57;;;3.53;;
33902;SDS011;20194;50.950;5.346;2023-07-20T00:44:59;9.13;;;3.58;;
33902;SDS011;20194;50.950;5.346;2023-07-20T00:47:25;7.15;;;3.80;;
33902;SDS011;20194;50.950;5.346;2023-07-20T00:49:52;8.15;;;3.67;;
33902;SDS011;20194;50.950;5.346;2023-07-20T00:52:18;7.13;;;3.60;;
33902;SDS011;20194;50.950;5.346;2023-07-20T00:54:46;7.75;;;3.78;;
33902;SDS011;20194;50.950;5.346;2023-07-20T00:57:13;7.03;;;3.78;;
33902;SDS011;20194;50.950;5.346;2023-07-20T00:59:40;11.07;;;4.93;;
33902;SDS011;20194;50.950;5.346;2023-07-20T01:02:06;9.18;;;3.88;;
33902;SDS011;20194;50.950;5.346;2023-07-20T01:04:32;8.10;;;3.92;;
33902;SDS011;20194;50.950;5.346;2023-07-20T01:09:29;6.07;;;3.30;;
33902;SDS011;20194;50.950;5.346;2023-07-20T01:14:32;7.85;;;4.25;;
33902;SDS011;20194;50.950;5.346;2023-07-20T01:16:59;8.65;;;3.80;;
33902;SDS011;20194;50.950;5.346;2023-07-20T01:19:25;8.13;;;3.45;;
33902;SDS011;20194;50.950;5.346;2023-07-20T01:30:18;7.97;;;3.67;;
33902;SDS011;20194;50.950;5.346;2023-07-20T01:32:57;12.40;;;3.38;;
33902;SDS011;20194;50.950;5.346;2023-07-20T01:35:26;11.40;;;3.83;;
33902;SDS011;20194;50.950;5.346;2023-07-20T01:37:53;10.00;;;3.80;;
33902;SDS011;20194;50.950;5.346;2023-07-20T01:40:20;7.60;;;3.83;;
33902;SDS011;20194;50.950;5.346;2023-07-20T01:42:47;8.95;;;3.85;;
33902;SDS011;20194;50.950;5.346;2023-07-20T01:45:13;6.57;;;2.97;;
33902;SDS011;20194;50.950;5.346;2023-07-20T01:47:39;7.85;;;3.83;;
33902;SDS011;20194;50.950;5.346;2023-07-20T01:50:05;8.27;;;3.35;;
33902;SDS011;20194;50.950;5.346;2023-07-20T01:52:32;6.78;;;3.33;;
33902;SDS011;20194;50.950;5.346;2023-07-20T01:54:57;11.93;;;3.47;;
33902;SDS011;20194;50.950;5.346;2023-07-20T01:57:23;9.05;;;3.75;;
33902;SDS011;20194;50.950;5.346;2023-07-20T01:59:49;9.27;;;3.28;;
33902;SDS011;20194;50.950;5.346;2023-07-20T02:02:14;8.02;;;3.78;;
33902;SDS011;20194;50.950;5.346;2023-07-20T02:04:40;9.30;;;3.28;;
33902;SDS011;20194;50.950;5.346;2023-07-20T02:07:06;9.88;;;3.45;;
33902;SDS011;20194;50.950;5.346;2023-07-20T02:09:31;8.32;;;3.83;;
33902;SDS011;20194;50.950;5.346;2023-07-20T02:11:57;6.82;;;3.47;;
33902;SDS011;20194;50.950;5.346;2023-07-20T02:14:23;7.93;;;3.70;;
33902;SDS011;20194;50.950;5.346;2023-07-20T02:16:49;13.38;;;3.47;;
33902;SDS011;20194;50.950;5.346;2023-07-20T02:19:19;6.43;;;3.65;;
33902;SDS011;20194;50.950;5.346;2023-07-20T02:21:46;7.32;;;3.78;;
33902;SDS011;20194;50.950;5.346;2023-07-20T02:24:12;8.80;;;4.00;;
33902;SDS011;20194;50.950;5.346;2023-07-20T02:26:38;11.23;;;3.63;;
33902;SDS011;20194;50.950;5.346;2023-07-20T02:29:04;10.18;;;3.67;;
33902;SDS011;20194;50.950;5.346;2023-07-20T02:31:30;11.82;;;3.90;;
33902;SDS011;20194;50.950;5.346;2023-07-20T02:33:55;7.15;;;4.10;;
33902;SDS011;20194;50.950;5.346;2023-07-20T02:36:21;8.25;;;3.60;;
33902;SDS011;20194;50.950;5.346;2023-07-20T02:38:47;10.43;;;3.63;;
33902;SDS011;20194;50.950;5.346;2023-07-20T02:41:13;12.32;;;4.50;;
33902;SDS011;20194;50.950;5.346;2023-07-20T02:43:39;9.93;;;4.25;;
33902;SDS011;20194;50.950;5.346;2023-07-20T02:46:04;7.40;;;4.00;;
33902;SDS011;20194;50.950;5.346;2023-07-20T02:48:30;8.57;;;3.92;;
33902;SDS011;20194;50.950;5.346;2023-07-20T02:50:56;12.32;;;3.97;;
33902;SDS011;20194;50.950;5.346;2023-07-20T02:53:22;9.20;;;4.05;;
33902;SDS011;20194;50.950;5.346;2023-07-20T02:55:48;7.28;;;3.72;;
33902;SDS011;20194;50.950;5.346;2023-07-20T02:58:13;15.02;;;4.57;;
33902;SDS011;20194;50.950;5.346;2023-07-20T03:00:39;9.40;;;3.72;;
33902;SDS011;20194;50.950;5.346;2023-07-20T03:03:05;14.52;;;4.30;;
33902;SDS011;20194;50.950;5.346;2023-07-20T03:05:34;10.88;;;3.90;;
33902;SDS011;20194;50.950;5.346;2023-07-20T03:08:03;8.68;;;3.55;;
33902;SDS011;20194;50.950;5.346;2023-07-20T03:10:31;15.10;;;4.78;;
33902;SDS011;20194;50.950;5.346;2023-07-20T03:12:57;10.77;;;4.00;;
33902;SDS011;20194;50.950;5.346;2023-07-20T03:15:22;12.10;;;4.32;;
33902;SDS011;20194;50.950;5.346;2023-07-20T03:17:48;11.48;;;4.63;;
33902;SDS011;20194;50.950;5.346;2023-07-20T03:20:14;7.28;;;3.85;;
33902;SDS011;20194;50.950;5.346;2023-07-20T03:22:39;18.48;;;4.10;;
33902;SDS011;20194;50.950;5.346;2023-07-20T03:25:05;12.40;;;4.00;;
33902;SDS011;20194;50.950;5.346;2023-07-20T03:27:31;9.90;;;3.90;;
33902;SDS011;20194;50.950;5.346;2023-07-20T03:29:57;11.60;;;4.40;;
33902;SDS011;20194;50.950;5.346;2023-07-20T03:32:23;8.90;;;4.32;;
33902;SDS011;20194;50.950;5.346;2023-07-20T03:34:48;8.75;;;4.38;;
33902;SDS011;20194;50.950;5.346;2023-07-20T03:37:14;10.20;;;4.15;;
33902;SDS011;20194;50.950;5.346;2023-07-20T03:39:40;10.00;;;4.30;;
33902;SDS011;20194;50.950;5.346;2023-07-20T03:42:05;10.25;;;5.10;;
33902;SDS011;20194;50.950;5.346;2023-07-20T03:44:31;12.05;;;4.85;;
33902;SDS011;20194;50.950;5.346;2023-07-20T03:46:57;14.30;;;4.75;;
33902;SDS011;20194;50.950;5.346;2023-07-20T03:49:23;9.45;;;4.53;;
33902;SDS011;20194;50.950;5.346;2023-07-20T03:51:48;8.45;;;4.53;;
33902;SDS011;20194;50.950;5.346;2023-07-20T03:54:14;8.98;;;4.30;;
33902;SDS011;20194;50.950;5.346;2023-07-20T03:56:39;8.48;;;4.07;;
33902;SDS011;20194;50.950;5.346;2023-07-20T03:59:05;13.70;;;4.50;;
33902;SDS011;20194;50.950;5.346;2023-07-20T04:01:31;10.57;;;4.40;;
33902;SDS011;20194;50.950;5.346;2023-07-20T04:04:01;10.63;;;4.50;;
33902;SDS011;20194;50.950;5.346;2023-07-20T04:06:32;10.40;;;4.88;;
33902;SDS011;20194;50.950;5.346;2023-07-20T04:08:58;10.13;;;6.13;;
33902;SDS011;20194;50.950;5.346;2023-07-20T04:11:23;13.90;;;5.20;;
33902;SDS011;20194;50.950;5.346;2023-07-20T04:13:50;10.40;;;4.95;;
33902;SDS011;20194;50.950;5.346;2023-07-20T04:16:16;10.77;;;4.63;;
33902;SDS011;20194;50.950;5.346;2023-07-20T04:18:41;14.13;;;5.75;;
33902;SDS011;20194;50.950;5.346;2023-07-20T04:21:07;11.43;;;5.25;;
33902;SDS011;20194;50.950;5.346;2023-07-20T04:23:34;11.00;;;5.35;;
33902;SDS011;20194;50.950;5.346;2023-07-20T04:26:01;12.38;;;5.28;;
33902;SDS011;20194;50.950;5.346;2023-07-20T04:28:27;15.77;;;6.25;;
33902;SDS011;20194;50.950;5.346;2023-07-20T04:30:52;17.80;;;5.75;;
33902;SDS011;20194;50.950;5.346;2023-07-20T04:33:18;11.45;;;5.78;;
33902;SDS011;20194;50.950;5.346;2023-07-20T04:35:51;15.35;;;6.10;;
33902;SDS011;20194;50.950;5.346;2023-07-20T04:38:18;16.50;;;7.45;;
33902;SDS011;20194;50.950;5.346;2023-07-20T04:40:45;16.48;;;8.07;;
33902;SDS011;20194;50.950;5.346;2023-07-20T04:43:12;16.38;;;6.82;;
33902;SDS011;20194;50.950;5.346;2023-07-20T04:45:38;15.45;;;7.60;;
33902;SDS011;20194;50.950;5.346;2023-07-20T04:48:11;17.05;;;7.13;;
33902;SDS011;20194;50.950;5.346;2023-07-20T04:50:40;14.13;;;7.03;;
33902;SDS011;20194;50.950;5.346;2023-07-20T04:53:06;17.63;;;7.13;;
33902;SDS011;20194;50.950;5.346;2023-07-20T04:55:32;18.27;;;8.05;;
33902;SDS011;20194;50.950;5.346;2023-07-20T04:58:02;19.30;;;9.40;;
33902;SDS011;20194;50.950;5.346;2023-07-20T05:00:28;20.80;;;9.68;;
33902;SDS011;20194;50.950;5.346;2023-07-20T05:02:55;19.77;;;9.35;;
33902;SDS011;20194;50.950;5.346;2023-07-20T05:05:21;18.75;;;9.20;;
33902;SDS011;20194;50.950;5.346;2023-07-20T05:07:47;19.00;;;8.73;;
33902;SDS011;20194;50.950;5.346;2023-07-20T05:10:13;20.40;;;9.50;;
33902;SDS011;20194;50.950;5.346;2023-07-20T05:12:38;14.77;;;8.85;;
33902;SDS011;20194;50.950;5.346;2023-07-20T05:15:04;18.45;;;8.73;;
33902;SDS011;20194;50.950;5.346;2023-07-20T05:17:30;19.88;;;10.50;;
33902;SDS011;20194;50.950;5.346;2023-07-20T05:19:56;21.25;;;9.93;;
33902;SDS011;20194;50.950;5.346;2023-07-20T05:22:21;24.90;;;11.05;;
33902;SDS011;20194;50.950;5.346;2023-07-20T05:24:48;22.48;;;9.85;;
33902;SDS011;20194;50.950;5.346;2023-07-20T05:27:13;15.98;;;9.43;;
33902;SDS011;20194;50.950;5.346;2023-07-20T05:29:48;18.48;;;9.98;;
33902;SDS011;20194;50.950;5.346;2023-07-20T05:32:14;19.50;;;9.80;;
33902;SDS011;20194;50.950;5.346;2023-07-20T05:34:40;19.38;;;9.85;;
33902;SDS011;20194;50.950;5.346;2023-07-20T05:37:06;15.90;;;9.43;;
33902;SDS011;20194;50.950;5.346;2023-07-20T05:39:34;16.33;;;9.98;;
33902;SDS011;20194;50.950;5.346;2023-07-20T05:42:00;25.60;;;11.35;;
33902;SDS011;20194;50.950;5.346;2023-07-20T05:44:26;18.55;;;9.98;;
33902;SDS011;20194;50.950;5.346;2023-07-20T05:46:52;24.23;;;11.27;;
33902;SDS011;20194;50.950;5.346;2023-07-20T05:49:18;26.20;;;11.82;;
33902;SDS011;20194;50.950;5.346;2023-07-20T05:51:43;24.00;;;13.20;;
33902;SDS011;20194;50.950;5.346;2023-07-20T05:54:09;22.13;;;13.40;;
33902;SDS011;20194;50.950;5.346;2023-07-20T05:56:34;30.83;;;16.00;;
33902;SDS011;20194;50.950;5.346;2023-07-20T05:59:00;26.33;;;15.77;;
33902;SDS011;20194;50.950;5.346;2023-07-20T06:01:26;27.95;;;16.98;;
33902;SDS011;20194;50.950;5.346;2023-07-20T06:03:53;31.90;;;16.50;;
33902;SDS011;20194;50.950;5.346;2023-07-20T06:06:19;32.88;;;16.33;;
33902;SDS011;20194;50.950;5.346;2023-07-20T06:08:44;23.88;;;14.60;;
33902;SDS011;20194;50.950;5.346;2023-07-20T06:11:10;28.23;;;16.27;;
33902;SDS011;20194;50.950;5.346;2023-07-20T06:13:37;26.88;;;14.48;;
33902;SDS011;20194;50.950;5.346;2023-07-20T06:16:03;30.65;;;16.92;;
33902;SDS011;20194;50.950;5.346;2023-07-20T06:18:29;25.38;;;14.13;;
33902;SDS011;20194;50.950;5.346;2023-07-20T06:20:55;28.13;;;15.10;;
33902;SDS011;20194;50.950;5.346;2023-07-20T06:23:21;23.00;;;13.68;;
33902;SDS011;20194;50.950;5.346;2023-07-20T06:25:47;24.30;;;13.80;;
33902;SDS011;20194;50.950;5.346;2023-07-20T06:28:13;24.20;;;13.50;;
33902;SDS011;20194;50.950;5.346;2023-07-20T06:30:39;24.65;;;15.05;;
33902;SDS011;20194;50.950;5.346;2023-07-20T06:33:05;24.33;;;13.25;;
33902;SDS011;20194;50.950;5.346;2023-07-20T06:35:33;24.35;;;14.60;;
33902;SDS011;20194;50.950;5.346;2023-07-20T06:37:59;23.95;;;13.88;;
33902;SDS011;20194;50.950;5.346;2023-07-20T06:40:26;27.55;;;15.50;;
33902;SDS011;20194;50.950;5.346;2023-07-20T06:42:52;25.80;;;15.20;;
33902;SDS011;20194;50.950;5.346;2023-07-20T06:45:17;22.48;;;13.60;;
33902;SDS011;20194;50.950;5.346;2023-07-20T06:47:43;23.10;;;14.00;;
33902;SDS011;20194;50.950;5.346;2023-07-20T06:50:09;22.50;;;15.55;;
33902;SDS011;20194;50.950;5.346;2023-07-20T06:52:36;15.73;;;9.00;;
33902;SDS011;20194;50.950;5.346;2023-07-20T06:55:02;23.63;;;14.55;;
33902;SDS011;20194;50.950;5.346;2023-07-20T06:57:28;19.42;;;12.02;;
33902;SDS011;20194;50.950;5.346;2023-07-20T06:59:53;27.75;;;15.48;;
33902;SDS011;20194;50.950;5.346;2023-07-20T07:02:19;10.10;;;7.95;;
33902;SDS011;20194;50.950;5.346;2023-07-20T07:04:45;18.70;;;10.52;;
33902;SDS011;20194;50.950;5.346;2023-07-20T07:07:13;10.77;;;7.15;;
33902;SDS011;20194;50.950;5.346;2023-07-20T07:09:41;10.30;;;6.88;;
33902;SDS011;20194;50.950;5.346;2023-07-20T07:12:07;16.65;;;10.07;;
33902;SDS011;20194;50.950;5.346;2023-07-20T07:14:33;23.88;;;13.27;;
33902;SDS011;20194;50.950;5.346;2023-07-20T07:16:59;20.48;;;11.40;;
33902;SDS011;20194;50.950;5.346;2023-07-20T07:19:25;19.63;;;12.20;;
33902;SDS011;20194;50.950;5.346;2023-07-20T07:21:51;16.63;;;10.95;;
33902;SDS011;20194;50.950;5.346;2023-07-20T07:24:17;12.77;;;7.97;;
33902;SDS011;20194;50.950;5.346;2023-07-20T07:26:42;7.22;;;5.97;;
33902;SDS011;20194;50.950;5.346;2023-07-20T07:29:09;21.63;;;11.65;;
33902;SDS011;20194;50.950;5.346;2023-07-20T07:31:35;15.63;;;10.93;;
33902;SDS011;20194;50.950;5.346;2023-07-20T07:34:02;17.42;;;12.10;;
33902;SDS011;20194;50.950;5.346;2023-07-20T07:36:28;18.98;;;11.65;;
33902;SDS011;20194;50.950;5.346;2023-07-20T07:38:54;13.95;;;10.25;;
33902;SDS011;20194;50.950;5.346;2023-07-20T07:41:19;20.27;;;12.38;;
33902;SDS011;20194;50.950;5.346;2023-07-20T07:43:45;15.73;;;11.63;;
33902;SDS011;20194;50.950;5.346;2023-07-20T07:46:11;20.15;;;12.07;;
33902;SDS011;20194;50.950;5.346;2023-07-20T07:48:39;18.10;;;12.55;;
33902;SDS011;20194;50.950;5.346;2023-07-20T07:51:05;19.83;;;12.80;;
33902;SDS011;20194;50.950;5.346;2023-07-20T07:53:31;19.73;;;11.25;;
33902;SDS011;20194;50.950;5.346;2023-07-20T07:55:57;13.80;;;9.10;;
33902;SDS011;20194;50.950;5.346;2023-07-20T07:58:23;17.80;;;10.80;;
33902;SDS011;20194;50.950;5.346;2023-07-20T08:00:57;17.10;;;11.32;;
33902;SDS011;20194;50.950;5.346;2023-07-20T08:03:22;18.67;;;12.25;;
33902;SDS011;20194;50.950;5.346;2023-07-20T08:05:49;16.23;;;9.75;;
33902;SDS011;20194;50.950;5.346;2023-07-20T08:08:15;14.48;;;9.73;;
33902;SDS011;20194;50.950;5.346;2023-07-20T08:10:40;12.60;;;7.60;;
33902;SDS011;20194;50.950;5.346;2023-07-20T08:13:06;13.23;;;6.78;;
33902;SDS011;20194;50.950;5.346;2023-07-20T08:15:32;11.77;;;6.95;;
33902;SDS011;20194;50.950;5.346;2023-07-20T08:17:58;10.38;;;7.53;;
33902;SDS011;20194;50.950;5.346;2023-07-20T08:20:24;11.88;;;8.85;;
33902;SDS011;20194;50.950;5.346;2023-07-20T08:22:52;12.68;;;8.05;;
33902;SDS011;20194;50.950;5.346;2023-07-20T08:25:21;11.65;;;8.30;;
33902;SDS011;20194;50.950;5.346;2023-07-20T08:27:47;12.73;;;7.78;;
33902;SDS011;20194;50.950;5.346;2023-07-20T08:30:13;9.43;;;7.50;;
33902;SDS011;20194;50.950;5.346;2023-07-20T08:32:39;8.45;;;6.40;;
33902;SDS011;20194;50.950;5.346;2023-07-20T08:35:05;9.88;;;5.78;;
33902;SDS011;20194;50.950;5.346;2023-07-20T08:37:31;10.05;;;6.32;;
33902;SDS011;20194;50.950;5.346;2023-07-20T08:39:56;11.30;;;6.38;;
33902;SDS011;20194;50.950;5.346;2023-07-20T08:42:22;13.95;;;6.40;;
33902;SDS011;20194;50.950;5.346;2023-07-20T08:44:48;15.23;;;6.18;;
33902;SDS011;20194;50.950;5.346;2023-07-20T08:47:16;6.25;;;4.90;;
33902;SDS011;20194;50.950;5.346;2023-07-20T08:49:42;6.55;;;4.80;;
33902;SDS011;20194;50.950;5.346;2023-07-20T08:52:08;6.93;;;4.63;;
33902;SDS011;20194;50.950;5.346;2023-07-20T08:54:35;6.05;;;3.72;;
33902;SDS011;20194;50.950;5.346;2023-07-20T08:57:04;11.18;;;5.20;;
33902;SDS011;20194;50.950;5.346;2023-07-20T08:59:30;10.15;;;4.55;;
33902;SDS011;20194;50.950;5.346;2023-07-20T09:01:58;8.65;;;3.95;;
33902;SDS011;20194;50.950;5.346;2023-07-20T09:04:24;5.47;;;3.22;;
33902;SDS011;20194;50.950;5.346;2023-07-20T09:06:50;7.75;;;4.78;;
33902;SDS011;20194;50.950;5.346;2023-07-20T09:09:17;5.93;;;4.22;;
33902;SDS011;20194;50.950;5.346;2023-07-20T09:11:43;5.63;;;3.97;;
33902;SDS011;20194;50.950;5.346;2023-07-20T09:14:12;4.45;;;3.05;;
33902;SDS011;20194;50.950;5.346;2023-07-20T09:16:51;7.28;;;3.45;;
33902;SDS011;20194;50.950;5.346;2023-07-20T09:19:18;4.10;;;3.05;;
33902;SDS011;20194;50.950;5.346;2023-07-20T09:21:51;9.77;;;3.53;;
33902;SDS011;20194;50.950;5.346;2023-07-20T09:24:17;4.72;;;3.28;;
33902;SDS011;20194;50.950;5.346;2023-07-20T09:26:44;4.40;;;2.85;;
33902;SDS011;20194;50.950;5.346;2023-07-20T09:29:13;6.40;;;2.80;;
33902;SDS011;20194;50.950;5.346;2023-07-20T09:31:42;3.38;;;2.20;;
33902;SDS011;20194;50.950;5.346;2023-07-20T09:34:23;4.25;;;2.80;;
33902;SDS011;20194;50.950;5.346;2023-07-20T09:36:50;4.82;;;2.92;;
33902;SDS011;20194;50.950;5.346;2023-07-20T09:39:17;4.97;;;3.42;;
33902;SDS011;20194;50.950;5.346;2023-07-20T09:41:43;4.20;;;2.92;;
33902;SDS011;20194;50.950;5.346;2023-07-20T09:44:09;4.80;;;2.65;;
33902;SDS011;20194;50.950;5.346;2023-07-20T09:46:45;5.20;;;2.95;;
33902;SDS011;20194;50.950;5.346;2023-07-20T09:49:13;2.85;;;2.30;;
33902;SDS011;20194;50.950;5.346;2023-07-20T09:51:41;3.67;;;2.72;;
33902;SDS011;20194;50.950;5.346;2023-07-20T09:54:11;4.95;;;2.45;;
33902;SDS011;20194;50.950;5.346;2023-07-20T09:56:38;4.20;;;2.28;;
33902;SDS011;20194;50.950;5.346;2023-07-20T09:59:05;7.28;;;2.40;;
33902;SDS011;20194;50.950;5.346;2023-07-20T10:01:31;5.00;;;2.83;;
33902;SDS011;20194;50.950;5.346;2023-07-20T10:03:59;5.65;;;3.20;;
33902;SDS011;20194;50.950;5.346;2023-07-20T10:06:30;6.25;;;3.70;;
33902;SDS011;20194;50.950;5.346;2023-07-20T10:09:01;4.60;;;3.20;;
33902;SDS011;20194;50.950;5.346;2023-07-20T10:11:35;3.38;;;2.70;;
33902;SDS011;20194;50.950;5.346;2023-07-20T10:14:08;2.92;;;2.60;;
33902;SDS011;20194;50.950;5.346;2023-07-20T10:16:39;2.72;;;2.42;;
33902;SDS011;20194;50.950;5.346;2023-07-20T10:19:27;3.50;;;2.50;;
33902;SDS011;20194;50.950;5.346;2023-07-20T10:22:10;2.78;;;2.00;;
33902;SDS011;20194;50.950;5.346;2023-07-20T10:24:39;2.97;;;2.33;;
33902;SDS011;20194;50.950;5.346;2023-07-20T10:27:10;4.47;;;2.78;;
33902;SDS011;20194;50.950;5.346;2023-07-20T10:29:36;4.05;;;2.40;;
33902;SDS011;20194;50.950;5.346;2023-07-20T10:32:03;4.28;;;2.65;;
33902;SDS011;20194;50.950;5.346;2023-07-20T10:34:29;4.50;;;1.90;;
33902;SDS011;20194;50.950;5.346;2023-07-20T10:36:55;2.40;;;1.77;;
33902;SDS011;20194;50.950;5.346;2023-07-20T10:39:24;2.70;;;1.65;;
33902;SDS011;20194;50.950;5.346;2023-07-20T10:42:08;4.15;;;2.40;;
33902;SDS011;20194;50.950;5.346;2023-07-20T10:44:38;3.42;;;2.75;;
33902;SDS011;20194;50.950;5.346;2023-07-20T10:47:11;2.83;;;2.47;;
33902;SDS011;20194;50.950;5.346;2023-07-20T10:49:59;2.90;;;2.05;;
33902;SDS011;20194;50.950;5.346;2023-07-20T10:52:36;3.25;;;2.35;;
33902;SDS011;20194;50.950;5.346;2023-07-20T10:55:14;3.13;;;1.80;;
33902;SDS011;20194;50.950;5.346;2023-07-20T10:57:41;3.22;;;1.42;;
33902;SDS011;20194;50.950;5.346;2023-07-20T11:00:11;2.35;;;2.15;;
33902;SDS011;20194;50.950;5.346;2023-07-20T11:02:42;4.32;;;2.50;;
33902;SDS011;20194;50.950;5.346;2023-07-20T11:05:27;4.45;;;3.17;;
33902;SDS011;20194;50.950;5.346;2023-07-20T11:08:37;3.50;;;2.65;;
33902;SDS011;20194;50.950;5.346;2023-07-20T11:11:42;6.20;;;2.20;;
33902;SDS011;20194;50.950;5.346;2023-07-20T11:14:02;5.55;;;1.88;;
33902;SDS011;20194;50.950;5.346;2023-07-20T11:16:33;4.28;;;2.17;;
33902;SDS011;20194;50.950;5.346;2023-07-20T11:19:02;3.70;;;2.03;;
33902;SDS011;20194;50.950;5.346;2023-07-20T11:21:30;3.58;;;2.30;;
33902;SDS011;20194;50.950;5.346;2023-07-20T11:24:05;2.80;;;2.40;;
33902;SDS011;20194;50.950;5.346;2023-07-20T11:26:39;2.75;;;1.95;;
33902;SDS011;20194;50.950;5.346;2023-07-20T11:29:05;1.60;;;1.35;;
33902;SDS011;20194;50.950;5.346;2023-07-20T11:31:34;3.20;;;1.50;;
33902;SDS011;20194;50.950;5.346;2023-07-20T11:34:01;3.40;;;1.70;;
33902;SDS011;20194;50.950;5.346;2023-07-20T11:36:26;3.63;;;1.52;;
33902;SDS011;20194;50.950;5.346;2023-07-20T11:38:53;2.53;;;1.55;;
33902;SDS011;20194;50.950;5.346;2023-07-20T11:41:19;3.10;;;1.50;;
33902;SDS011;20194;50.950;5.346;2023-07-20T11:43:45;4.45;;;1.75;;
33902;SDS011;20194;50.950;5.346;2023-07-20T11:46:11;2.88;;;1.92;;
33902;SDS011;20194;50.950;5.346;2023-07-20T11:48:37;4.35;;;1.60;;
33902;SDS011;20194;50.950;5.346;2023-07-20T11:51:04;2.95;;;1.65;;
33902;SDS011;20194;50.950;5.346;2023-07-20T11:53:30;4.30;;;1.90;;
33902;SDS011;20194;50.950;5.346;2023-07-20T11:55:58;4.05;;;1.40;;
33902;SDS011;20194;50.950;5.346;2023-07-20T11:58:24;1.92;;;1.42;;
33902;SDS011;20194;50.950;5.346;2023-07-20T12:00:52;4.63;;;2.05;;
33902;SDS011;20194;50.950;5.346;2023-07-20T12:03:19;3.40;;;2.10;;
33902;SDS011;20194;50.950;5.346;2023-07-20T12:05:47;2.13;;;1.92;;
33902;SDS011;20194;50.950;5.346;2023-07-20T12:08:16;2.05;;;1.60;;
33902;SDS011;20194;50.950;5.346;2023-07-20T12:10:42;2.70;;;1.60;;
33902;SDS011;20194;50.950;5.346;2023-07-20T12:13:09;2.35;;;1.60;;
33902;SDS011;20194;50.950;5.346;2023-07-20T12:15:39;2.20;;;1.85;;
33902;SDS011;20194;50.950;5.346;2023-07-20T12:18:05;1.67;;;1.40;;
33902;SDS011;20194;50.950;5.346;2023-07-20T12:25:36;6.40;;;2.17;;
33902;SDS011;20194;50.950;5.346;2023-07-20T12:28:04;2.92;;;1.80;;
33902;SDS011;20194;50.950;5.346;2023-07-20T12:30:31;2.70;;;1.70;;
33902;SDS011;20194;50.950;5.346;2023-07-20T12:32:57;3.28;;;1.38;;
33902;SDS011;20194;50.950;5.346;2023-07-20T12:35:23;1.60;;;1.48;;
33902;SDS011;20194;50.950;5.346;2023-07-20T12:37:48;1.70;;;1.58;;
33902;SDS011;20194;50.950;5.346;2023-07-20T12:40:15;1.67;;;1.52;;
33902;SDS011;20194;50.950;5.346;2023-07-20T12:42:41;2.63;;;1.58;;
33902;SDS011;20194;50.950;5.346;2023-07-20T12:45:07;2.28;;;1.42;;
33902;SDS011;20194;50.950;5.346;2023-07-20T12:47:33;2.33;;;1.73;;
33902;SDS011;20194;50.950;5.346;2023-07-20T12:49:59;1.23;;;1.10;;
33902;SDS011;20194;50.950;5.346;2023-07-20T12:52:25;3.70;;;1.55;;
33902;SDS011;20194;50.950;5.346;2023-07-20T12:54:51;1.73;;;1.13;;
33902;SDS011;20194;50.950;5.346;2023-07-20T12:57:17;3.85;;;1.48;;
33902;SDS011;20194;50.950;5.346;2023-07-20T12:59:43;3.08;;;1.33;;
33902;SDS011;20194;50.950;5.346;2023-07-20T13:02:09;3.38;;;1.60;;
33902;SDS011;20194;50.950;5.346;2023-07-20T13:04:34;3.50;;;1.55;;
33902;SDS011;20194;50.950;5.346;2023-07-20T13:07:00;2.53;;;1.50;;
33902;SDS011;20194;50.950;5.346;2023-07-20T13:09:26;3.38;;;1.40;;
33902;SDS011;20194;50.950;5.346;2023-07-20T13:11:51;1.50;;;1.40;;
33902;SDS011;20194;50.950;5.346;2023-07-20T13:14:18;1.77;;;1.42;;
33902;SDS011;20194;50.950;5.346;2023-07-20T13:16:43;1.80;;;1.20;;
33902;SDS011;20194;50.950;5.346;2023-07-20T13:19:09;2.38;;;1.30;;
33902;SDS011;20194;50.950;5.346;2023-07-20T13:21:35;4.38;;;1.38;;
33902;SDS011;20194;50.950;5.346;2023-07-20T13:24:00;1.73;;;1.30;;
33902;SDS011;20194;50.950;5.346;2023-07-20T13:26:26;1.80;;;1.50;;
33902;SDS011;20194;50.950;5.346;2023-07-20T13:28:52;2.65;;;1.98;;
33902;SDS011;20194;50.950;5.346;2023-07-20T13:31:17;2.97;;;1.20;;
33902;SDS011;20194;50.950;5.346;2023-07-20T13:33:44;3.83;;;1.35;;
33902;SDS011;20194;50.950;5.346;2023-07-20T13:36:09;1.48;;;1.38;;
33902;SDS011;20194;50.950;5.346;2023-07-20T13:38:35;1.30;;;1.20;;
33902;SDS011;20194;50.950;5.346;2023-07-20T13:41:01;6.00;;;1.25;;
33902;SDS011;20194;50.950;5.346;2023-07-20T13:43:26;1.88;;;1.40;;
33902;SDS011;20194;50.950;5.346;2023-07-20T13:45:52;1.65;;;1.45;;
33902;SDS011;20194;50.950;5.346;2023-07-20T13:48:18;1.70;;;1.40;;
33902;SDS011;20194;50.950;5.346;2023-07-20T13:50:47;4.90;;;1.52;;
33902;SDS011;20194;50.950;5.346;2023-07-20T13:53:13;2.20;;;1.58;;
33902;SDS011;20194;50.950;5.346;2023-07-20T13:55:41;3.33;;;1.42;;
33902;SDS011;20194;50.950;5.346;2023-07-20T13:58:07;1.27;;;1.10;;
33902;SDS011;20194;50.950;5.346;2023-07-20T14:00:35;2.95;;;1.00;;
33902;SDS011;20194;50.950;5.346;2023-07-20T14:03:00;1.52;;;1.30;;
33902;SDS011;20194;50.950;5.346;2023-07-20T14:05:26;1.35;;;1.00;;
33902;SDS011;20194;50.950;5.346;2023-07-20T14:07:53;2.65;;;0.90;;
33902;SDS011;20194;50.950;5.346;2023-07-20T14:10:19;2.45;;;0.90;;
33902;SDS011;20194;50.950;5.346;2023-07-20T14:12:45;3.70;;;1.02;;
33902;SDS011;20194;50.950;5.346;2023-07-20T14:15:11;2.05;;;1.00;;
33902;SDS011;20194;50.950;5.346;2023-07-20T14:17:37;1.52;;;1.27;;
33902;SDS011;20194;50.950;5.346;2023-07-20T14:20:03;0.93;;;0.90;;
33902;SDS011;20194;50.950;5.346;2023-07-20T14:22:33;3.95;;;1.17;;
33902;SDS011;20194;50.950;5.346;2023-07-20T14:24:58;1.83;;;1.00;;
33902;SDS011;20194;50.950;5.346;2023-07-20T14:27:24;2.50;;;0.90;;
33902;SDS011;20194;50.950;5.346;2023-07-20T14:29:50;0.70;;;0.70;;
33902;SDS011;20194;50.950;5.346;2023-07-20T14:32:15;0.88;;;0.88;;
33902;SDS011;20194;50.950;5.346;2023-07-20T14:34:41;0.82;;;0.60;;
33902;SDS011;20194;50.950;5.346;2023-07-20T14:37:07;3.13;;;1.17;;
33902;SDS011;20194;50.950;5.346;2023-07-20T14:39:33;1.02;;;0.90;;
33902;SDS011;20194;50.950;5.346;2023-07-20T14:41:58;3.15;;;0.90;;
33902;SDS011;20194;50.950;5.346;2023-07-20T14:44:24;1.10;;;0.90;;
33902;SDS011;20194;50.950;5.346;2023-07-20T14:46:50;0.77;;;0.70;;
33902;SDS011;20194;50.950;5.346;2023-07-20T14:49:16;1.42;;;0.88;;
33902;SDS011;20194;50.950;5.346;2023-07-20T14:51:43;0.55;;;0.55;;
33902;SDS011;20194;50.950;5.346;2023-07-20T14:54:12;0.95;;;0.88;;
33902;SDS011;20194;50.950;5.346;2023-07-20T14:56:38;1.00;;;0.90;;
33902;SDS011;20194;50.950;5.346;2023-07-20T14:59:10;1.00;;;0.80;;